sensor_id;sensor_type;location;lat;lon;timestamp;pressure;altitude;pressure_sealevel;temperature;humidity
48680;BME280;34475;51.658;5.634;2023-02-28T00:00:00;102880;;;0.2;100.0
48680;BME280;34475;51.658;5.634;2023-02-28T00:01:00;102880;;;0.2;100.0
48680;BME280;34475;51.658;5.634;2023-02-28T00:02:00;102880;;;0.2;100.0
48680;BME280;34475;51.658;5.634;2023-02-28T00:03:00;102880;;;0.2;100.0
48680;BME280;34475;51.658;5.634;2023-02-28T00:04:00;102880;;;0.1;100.0
48680;BME280;34475;51.658;5.634;2023-02-28T00:05:00;102880;;;0.1;100.0
48680;BME280;34475;51.658;5.634;2023-02-28T00:06:02;102870;;;0.1;100.0
48680;BME280;34475;51.658;5.634;2023-02-28T00:07:00;102870;;;0.1;100.0
48680;BME280;34475;51.658;5.634;2023-02-28T00:08:00;102880;;;0.1;100.0
48680;BME280;34475;51.658;5.634;2023-02-28T00:09:00;102880;;;0.1;100.0
48680;BME280;34475;51.658;5.634;2023-02-28T00:10:00;102880;;;0.1;100.0
48680;BME280;34475;51.658;5.634;2023-02-28T00:11:01;102880;;;0.1;100.0
48680;BME280;34475;51.658;5.634;2023-02-28T00:12:00;102870;;;0.1;100.0
48680;BME280;34475;51.658;5.634;2023-02-28T00:13:01;102870;;;0.1;100.0
48680;BME280;34475;51.658;5.634;2023-02-28T00:14:00;102870;;;0.1;100.0
48680;BME280;34475;51.658;5.634;2023-02-28T00:15:01;102870;;;0.1;100.0
48680;BME280;34475;51.658;5.634;2023-02-28T00:16:02;102870;;;-0.1;100.0
48680;BME280;34475;51.658;5.634;2023-02-28T00:17:00;102870;;;-0.1;100.0
48680;BME280;34475;51.658;5.634;2023-02-28T00:18:01;102880;;;-0.1;100.0
48680;BME280;34475;51.658;5.634;2023-02-28T00:19:00;102880;;;-0.1;100.0
48680;BME280;34475;51.658;5.634;2023-02-28T00:20:00;102870;;;-0.0;100.0
48680;BME280;34475;51.658;5.634;2023-02-28T00:21:00;102870;;;-0.0;100.0
48680;BME280;34475;51.658;5.634;2023-02-28T00:22:00;102870;;;0.0;100.0
48680;BME280;34475;51.658;5.634;2023-02-28T00:23:00;102870;;;0.0;100.0
48680;BME280;34475;51.658;5.634;2023-02-28T00:24:00;102870;;;0.0;100.0
48680;BME280;34475;51.658;5.634;2023-02-28T00:25:00;102870;;;0.0;100.0
48680;BME280;34475;51.658;5.634;2023-02-28T00:26:00;102870;;;0.0;100.0
48680;BME280;34475;51.658;5.634;2023-02-28T00:27:00;102870;;;0.0;100.0
48680;BME280;34475;51.658;5.634;2023-02-28T00:28:00;102880;;;0.0;100.0
48680;BME280;34475;51.658;5.634;2023-02-28T00:29:00;102880;;;0.0;100.0
48680;BME280;34475;51.658;5.634;2023-02-28T00:30:00;102870;;;0.0;100.0
48680;BME280;34475;51.658;5.634;2023-02-28T00:31:00;102870;;;0.0;100.0
48680;BME280;34475;51.658;5.634;2023-02-28T00:32:00;102870;;;0.1;100.0
48680;BME280;34475;51.658;5.634;2023-02-28T00:33:00;102870;;;0.1;100.0
48680;BME280;34475;51.658;5.634;2023-02-28T00:34:00;102870;;;-0.0;100.0
48680;BME280;34475;51.658;5.634;2023-02-28T00:35:00;102870;;;-0.0;100.0
48680;BME280;34475;51.658;5.634;2023-02-28T00:36:01;102870;;;0.0;100.0
48680;BME280;34475;51.658;5.634;2023-02-28T00:37:00;102870;;;0.0;100.0
48680;BME280;34475;51.658;5.634;2023-02-28T00:38:00;102870;;;0.0;100.0
48680;BME280;34475;51.658;5.634;2023-02-28T00:39:00;102870;;;0.0;100.0
48680;BME280;34475;51.658;5.634;2023-02-28T00:40:00;102870;;;0.0;100.0
48680;BME280;34475;51.658;5.634;2023-02-28T00:41:00;102870;;;0.0;100.0
48680;BME280;34475;51.658;5.634;2023-02-28T00:42:00;102870;;;0.0;100.0
48680;BME280;34475;51.658;5.634;2023-02-28T00:43:00;102870;;;0.0;100.0
48680;BME280;34475;51.658;5.634;2023-02-28T00:44:00;102870;;;-0.0;100.0
48680;BME280;34475;51.658;5.634;2023-02-28T00:45:00;102870;;;-0.0;100.0
48680;BME280;34475;51.658;5.634;2023-02-28T00:46:00;102860;;;-0.0;100.0
48680;BME280;34475;51.658;5.634;2023-02-28T00:47:00;102860;;;-0.0;100.0
48680;BME280;34475;51.658;5.634;2023-02-28T00:48:00;102860;;;-0.1;100.0
48680;BME280;34475;51.658;5.634;2023-02-28T00:49:00;102860;;;-0.1;100.0
48680;BME280;34475;51.658;5.634;2023-02-28T00:50:00;102860;;;-0.1;100.0
48680;BME280;34475;51.658;5.634;2023-02-28T00:51:00;102860;;;-0.1;100.0
48680;BME280;34475;51.658;5.634;2023-02-28T00:52:00;102860;;;-0.1;100.0
48680;BME280;34475;51.658;5.634;2023-02-28T00:53:00;102860;;;-0.1;100.0
48680;BME280;34475;51.658;5.634;2023-02-28T00:54:00;102870;;;-0.1;100.0
48680;BME280;34475;51.658;5.634;2023-02-28T00:55:00;102870;;;-0.1;100.0
48680;BME280;34475;51.658;5.634;2023-02-28T00:56:00;102860;;;-0.2;100.0
48680;BME280;34475;51.658;5.634;2023-02-28T00:57:00;102860;;;-0.2;100.0
48680;BME280;34475;51.658;5.634;2023-02-28T00:58:00;102860;;;-0.1;100.0
48680;BME280;34475;51.658;5.634;2023-02-28T00:59:00;102860;;;-0.1;100.0
48680;BME280;34475;51.658;5.634;2023-02-28T01:00:00;102870;;;-0.2;100.0
48680;BME280;34475;51.658;5.634;2023-02-28T01:01:00;102870;;;-0.2;100.0
48680;BME280;34475;51.658;5.634;2023-02-28T01:02:00;102870;;;-0.2;100.0
48680;BME280;34475;51.658;5.634;2023-02-28T01:03:00;102870;;;-0.2;100.0
48680;BME280;34475;51.658;5.634;2023-02-28T01:04:00;102870;;;-0.2;100.0
48680;BME280;34475;51.658;5.634;2023-02-28T01:05:00;102870;;;-0.2;100.0
48680;BME280;34475;51.658;5.634;2023-02-28T01:06:00;102870;;;-0.2;100.0
48680;BME280;34475;51.658;5.634;2023-02-28T01:07:00;102870;;;-0.2;100.0
48680;BME280;34475;51.658;5.634;2023-02-28T01:08:00;102870;;;-0.2;100.0
48680;BME280;34475;51.658;5.634;2023-02-28T01:09:00;102870;;;-0.2;100.0
48680;BME280;34475;51.658;5.634;2023-02-28T01:10:00;102880;;;-0.3;100.0
48680;BME280;34475;51.658;5.634;2023-02-28T01:11:06;102880;;;-0.3;100.0
48680;BME280;34475;51.658;5.634;2023-02-28T01:12:00;102880;;;-0.5;100.0
48680;BME280;34475;51.658;5.634;2023-02-28T01:13:00;102880;;;-0.5;100.0
48680;BME280;34475;51.658;5.634;2023-02-28T01:14:00;102880;;;-0.5;100.0
48680;BME280;34475;51.658;5.634;2023-02-28T01:15:00;102880;;;-0.5;100.0
48680;BME280;34475;51.658;5.634;2023-02-28T01:16:00;102880;;;-0.4;100.0
48680;BME280;34475;51.658;5.634;2023-02-28T01:17:00;102880;;;-0.4;100.0
48680;BME280;34475;51.658;5.634;2023-02-28T01:18:00;102890;;;-0.4;100.0
48680;BME280;34475;51.658;5.634;2023-02-28T01:19:00;102890;;;-0.4;100.0
48680;BME280;34475;51.658;5.634;2023-02-28T01:20:00;102890;;;-0.4;100.0
48680;BME280;34475;51.658;5.634;2023-02-28T01:21:04;102890;;;-0.4;100.0
48680;BME280;34475;51.658;5.634;2023-02-28T01:22:01;102890;;;-0.4;100.0
48680;BME280;34475;51.658;5.634;2023-02-28T01:23:00;102890;;;-0.4;100.0
48680;BME280;34475;51.658;5.634;2023-02-28T01:24:00;102880;;;-0.3;100.0
48680;BME280;34475;51.658;5.634;2023-02-28T01:25:00;102880;;;-0.3;100.0
48680;BME280;34475;51.658;5.634;2023-02-28T01:26:08;102890;;;-0.3;100.0
48680;BME280;34475;51.658;5.634;2023-02-28T01:27:00;102890;;;-0.3;100.0
48680;BME280;34475;51.658;5.634;2023-02-28T01:28:00;102890;;;-0.3;100.0
48680;BME280;34475;51.658;5.634;2023-02-28T01:29:00;102890;;;-0.3;100.0
48680;BME280;34475;51.658;5.634;2023-02-28T01:30:00;102890;;;-0.3;100.0
48680;BME280;34475;51.658;5.634;2023-02-28T01:31:00;102890;;;-0.3;100.0
48680;BME280;34475;51.658;5.634;2023-02-28T01:32:00;102880;;;-0.3;100.0
48680;BME280;34475;51.658;5.634;2023-02-28T01:33:00;102880;;;-0.3;100.0
48680;BME280;34475;51.658;5.634;2023-02-28T01:34:00;102900;;;-0.3;100.0
48680;BME280;34475;51.658;5.634;2023-02-28T01:35:00;102900;;;-0.3;100.0
48680;BME280;34475;51.658;5.634;2023-02-28T01:36:02;102890;;;-0.3;100.0
48680;BME280;34475;51.658;5.634;2023-02-28T01:37:00;102890;;;-0.3;100.0
48680;BME280;34475;51.658;5.634;2023-02-28T01:38:00;102880;;;-0.2;100.0
48680;BME280;34475;51.658;5.634;2023-02-28T01:39:00;102880;;;-0.2;100.0
48680;BME280;34475;51.658;5.634;2023-02-28T01:40:00;102880;;;-0.2;100.0
48680;BME280;34475;51.658;5.634;2023-02-28T01:41:00;102880;;;-0.2;100.0
48680;BME280;34475;51.658;5.634;2023-02-28T01:42:00;102880;;;-0.2;100.0
48680;BME280;34475;51.658;5.634;2023-02-28T01:43:00;102880;;;-0.2;100.0
48680;BME280;34475;51.658;5.634;2023-02-28T01:44:02;102880;;;-0.2;100.0
48680;BME280;34475;51.658;5.634;2023-02-28T01:46:00;102870;;;-0.3;100.0
48680;BME280;34475;51.658;5.634;2023-02-28T01:47:00;102870;;;-0.3;100.0
48680;BME280;34475;51.658;5.634;2023-02-28T01:48:02;102870;;;-0.3;100.0
48680;BME280;34475;51.658;5.634;2023-02-28T01:50:00;102870;;;-0.3;100.0
48680;BME280;34475;51.658;5.634;2023-02-28T01:51:01;102870;;;-0.3;100.0
48680;BME280;34475;51.658;5.634;2023-02-28T01:52:00;102870;;;-0.3;100.0
48680;BME280;34475;51.658;5.634;2023-02-28T01:53:02;102870;;;-0.3;100.0
48680;BME280;34475;51.658;5.634;2023-02-28T01:54:02;102860;;;-0.2;100.0
48680;BME280;34475;51.658;5.634;2023-02-28T01:55:00;102860;;;-0.2;100.0
48680;BME280;34475;51.658;5.634;2023-02-28T01:56:00;102860;;;-0.2;100.0
48680;BME280;34475;51.658;5.634;2023-02-28T01:57:01;102860;;;-0.2;100.0
48680;BME280;34475;51.658;5.634;2023-02-28T01:58:01;102860;;;-0.2;100.0
48680;BME280;34475;51.658;5.634;2023-02-28T01:59:00;102860;;;-0.2;100.0
48680;BME280;34475;51.658;5.634;2023-02-28T02:00:00;102860;;;-0.3;100.0
48680;BME280;34475;51.658;5.634;2023-02-28T02:01:00;102860;;;-0.3;100.0
48680;BME280;34475;51.658;5.634;2023-02-28T02:02:00;102870;;;-0.2;100.0
48680;BME280;34475;51.658;5.634;2023-02-28T02:03:02;102870;;;-0.2;100.0
48680;BME280;34475;51.658;5.634;2023-02-28T02:04:01;102870;;;-0.2;100.0
48680;BME280;34475;51.658;5.634;2023-02-28T02:05:03;102870;;;-0.2;100.0
48680;BME280;34475;51.658;5.634;2023-02-28T02:06:00;102870;;;-0.1;100.0
48680;BME280;34475;51.658;5.634;2023-02-28T02:07:00;102870;;;-0.1;100.0
48680;BME280;34475;51.658;5.634;2023-02-28T02:08:03;102870;;;-0.2;100.0
48680;BME280;34475;51.658;5.634;2023-02-28T02:09:00;102870;;;-0.2;100.0
48680;BME280;34475;51.658;5.634;2023-02-28T02:11:01;102860;;;-0.2;100.0
48680;BME280;34475;51.658;5.634;2023-02-28T02:12:01;102860;;;-0.1;100.0
48680;BME280;34475;51.658;5.634;2023-02-28T02:15:01;102860;;;-0.1;100.0
48680;BME280;34475;51.658;5.634;2023-02-28T02:17:04;102850;;;-0.1;100.0
48680;BME280;34475;51.658;5.634;2023-02-28T02:18:03;102850;;;-0.1;100.0
48680;BME280;34475;51.658;5.634;2023-02-28T02:22:09;102850;;;-0.1;100.0
48680;BME280;34475;51.658;5.634;2023-02-28T02:26:06;102860;;;-0.1;100.0
48680;BME280;34475;51.658;5.634;2023-02-28T02:36:02;102860;;;0.0;100.0
48680;BME280;34475;51.658;5.634;2023-02-28T02:38:05;102850;;;0.1;100.0
48680;BME280;34475;51.658;5.634;2023-02-28T02:39:17;102850;;;0.1;100.0
48680;BME280;34475;51.658;5.634;2023-02-28T02:40:07;102850;;;0.1;100.0
48680;BME280;34475;51.658;5.634;2023-02-28T02:41:04;102850;;;0.1;100.0
48680;BME280;34475;51.658;5.634;2023-02-28T02:42:01;102850;;;0.1;100.0
48680;BME280;34475;51.658;5.634;2023-02-28T02:44:02;102850;;;0.1;100.0
48680;BME280;34475;51.658;5.634;2023-02-28T02:45:04;102850;;;0.1;100.0
48680;BME280;34475;51.658;5.634;2023-02-28T02:46:03;102850;;;0.2;100.0
48680;BME280;34475;51.658;5.634;2023-02-28T02:47:05;102850;;;0.2;100.0
48680;BME280;34475;51.658;5.634;2023-02-28T02:48:00;102850;;;0.3;100.0
48680;BME280;34475;51.658;5.634;2023-02-28T02:49:00;102850;;;0.3;100.0
48680;BME280;34475;51.658;5.634;2023-02-28T02:50:01;102850;;;0.4;100.0
48680;BME280;34475;51.658;5.634;2023-02-28T02:51:01;102850;;;0.4;100.0
48680;BME280;34475;51.658;5.634;2023-02-28T02:52:02;102850;;;0.3;100.0
48680;BME280;34475;51.658;5.634;2023-02-28T02:53:00;102850;;;0.3;100.0
48680;BME280;34475;51.658;5.634;2023-02-28T02:54:08;102850;;;0.2;100.0
48680;BME280;34475;51.658;5.634;2023-02-28T02:55:00;102850;;;0.2;100.0
48680;BME280;34475;51.658;5.634;2023-02-28T02:56:01;102850;;;0.2;100.0
48680;BME280;34475;51.658;5.634;2023-02-28T02:57:01;102850;;;0.2;100.0
48680;BME280;34475;51.658;5.634;2023-02-28T02:58:01;102850;;;0.1;100.0
48680;BME280;34475;51.658;5.634;2023-02-28T02:59:01;102850;;;0.1;100.0
48680;BME280;34475;51.658;5.634;2023-02-28T03:00:00;102850;;;0.2;100.0
48680;BME280;34475;51.658;5.634;2023-02-28T03:01:01;102850;;;0.2;100.0
48680;BME280;34475;51.658;5.634;2023-02-28T03:02:02;102860;;;0.2;100.0
48680;BME280;34475;51.658;5.634;2023-02-28T03:03:00;102860;;;0.2;100.0
48680;BME280;34475;51.658;5.634;2023-02-28T03:04:01;102860;;;0.1;100.0
48680;BME280;34475;51.658;5.634;2023-02-28T03:05:01;102860;;;0.1;100.0
48680;BME280;34475;51.658;5.634;2023-02-28T03:06:00;102860;;;0.3;100.0
48680;BME280;34475;51.658;5.634;2023-02-28T03:07:00;102860;;;0.3;100.0
48680;BME280;34475;51.658;5.634;2023-02-28T03:08:02;102850;;;0.2;100.0
48680;BME280;34475;51.658;5.634;2023-02-28T03:09:00;102850;;;0.2;100.0
48680;BME280;34475;51.658;5.634;2023-02-28T03:10:00;102850;;;0.2;100.0
48680;BME280;34475;51.658;5.634;2023-02-28T03:11:02;102850;;;0.2;100.0
48680;BME280;34475;51.658;5.634;2023-02-28T03:12:00;102850;;;0.2;100.0
48680;BME280;34475;51.658;5.634;2023-02-28T03:13:03;102850;;;0.2;100.0
48680;BME280;34475;51.658;5.634;2023-02-28T03:14:07;102850;;;0.2;100.0
48680;BME280;34475;51.658;5.634;2023-02-28T03:15:04;102850;;;0.2;100.0
48680;BME280;34475;51.658;5.634;2023-02-28T03:17:08;102850;;;0.2;100.0
48680;BME280;34475;51.658;5.634;2023-02-28T03:18:03;102860;;;0.2;100.0
48680;BME280;34475;51.658;5.634;2023-02-28T03:20:12;102860;;;0.1;100.0
48680;BME280;34475;51.658;5.634;2023-02-28T03:21:03;102860;;;0.1;100.0
48680;BME280;34475;51.658;5.634;2023-02-28T03:22:04;102850;;;0.1;100.0
48680;BME280;34475;51.658;5.634;2023-02-28T03:23:03;102850;;;0.1;100.0
48680;BME280;34475;51.658;5.634;2023-02-28T03:26:02;102850;;;0.2;100.0
48680;BME280;34475;51.658;5.634;2023-02-28T03:27:06;102850;;;0.2;100.0
48680;BME280;34475;51.658;5.634;2023-02-28T03:28:02;102850;;;0.2;100.0
48680;BME280;34475;51.658;5.634;2023-02-28T03:29:10;102850;;;0.2;100.0
48680;BME280;34475;51.658;5.634;2023-02-28T03:30:01;102850;;;0.3;100.0
48680;BME280;34475;51.658;5.634;2023-02-28T03:31:03;102850;;;0.3;100.0
48680;BME280;34475;51.658;5.634;2023-02-28T03:32:03;102850;;;0.3;100.0
48680;BME280;34475;51.658;5.634;2023-02-28T03:34:03;102850;;;0.3;100.0
48680;BME280;34475;51.658;5.634;2023-02-28T03:35:02;102850;;;0.3;100.0
48680;BME280;34475;51.658;5.634;2023-02-28T03:36:02;102850;;;0.2;100.0
48680;BME280;34475;51.658;5.634;2023-02-28T03:37:02;102850;;;0.2;100.0
48680;BME280;34475;51.658;5.634;2023-02-28T03:38:02;102850;;;0.3;100.0
48680;BME280;34475;51.658;5.634;2023-02-28T03:39:04;102850;;;0.3;100.0
48680;BME280;34475;51.658;5.634;2023-02-28T03:40:01;102860;;;0.2;100.0
48680;BME280;34475;51.658;5.634;2023-02-28T03:41:04;102860;;;0.2;100.0
48680;BME280;34475;51.658;5.634;2023-02-28T03:42:03;102850;;;0.3;100.0
48680;BME280;34475;51.658;5.634;2023-02-28T03:43:02;102850;;;0.3;100.0
48680;BME280;34475;51.658;5.634;2023-02-28T03:44:02;102850;;;0.3;100.0
48680;BME280;34475;51.658;5.634;2023-02-28T03:45:01;102850;;;0.3;100.0
48680;BME280;34475;51.658;5.634;2023-02-28T03:46:00;102850;;;0.3;100.0
48680;BME280;34475;51.658;5.634;2023-02-28T03:47:02;102850;;;0.3;100.0
48680;BME280;34475;51.658;5.634;2023-02-28T03:49:02;102860;;;0.3;100.0
48680;BME280;34475;51.658;5.634;2023-02-28T03:50:03;102850;;;0.4;100.0
48680;BME280;34475;51.658;5.634;2023-02-28T03:51:00;102850;;;0.4;100.0
48680;BME280;34475;51.658;5.634;2023-02-28T03:52:01;102860;;;0.4;100.0
48680;BME280;34475;51.658;5.634;2023-02-28T03:53:01;102860;;;0.4;100.0
48680;BME280;34475;51.658;5.634;2023-02-28T03:54:02;102860;;;0.4;100.0
48680;BME280;34475;51.658;5.634;2023-02-28T03:55:02;102860;;;0.4;100.0
48680;BME280;34475;51.658;5.634;2023-02-28T03:56:05;102850;;;0.4;100.0
48680;BME280;34475;51.658;5.634;2023-02-28T03:57:03;102850;;;0.4;100.0
48680;BME280;34475;51.658;5.634;2023-02-28T03:58:03;102850;;;0.4;100.0
48680;BME280;34475;51.658;5.634;2023-02-28T03:59:02;102850;;;0.4;100.0
48680;BME280;34475;51.658;5.634;2023-02-28T04:00:03;102840;;;0.4;100.0
48680;BME280;34475;51.658;5.634;2023-02-28T04:01:11;102840;;;0.4;100.0
48680;BME280;34475;51.658;5.634;2023-02-28T04:02:00;102850;;;0.5;100.0
48680;BME280;34475;51.658;5.634;2023-02-28T04:03:00;102850;;;0.5;100.0
48680;BME280;34475;51.658;5.634;2023-02-28T04:04:00;102840;;;0.5;100.0
48680;BME280;34475;51.658;5.634;2023-02-28T04:05:00;102840;;;0.5;100.0
48680;BME280;34475;51.658;5.634;2023-02-28T04:06:00;102840;;;0.6;100.0
48680;BME280;34475;51.658;5.634;2023-02-28T04:07:01;102840;;;0.6;100.0
48680;BME280;34475;51.658;5.634;2023-02-28T04:08:04;102840;;;0.6;100.0
48680;BME280;34475;51.658;5.634;2023-02-28T04:09:00;102840;;;0.6;100.0
48680;BME280;34475;51.658;5.634;2023-02-28T04:10:00;102840;;;0.6;100.0
48680;BME280;34475;51.658;5.634;2023-02-28T04:11:01;102840;;;0.6;100.0
48680;BME280;34475;51.658;5.634;2023-02-28T04:12:00;102840;;;0.5;100.0
48680;BME280;34475;51.658;5.634;2023-02-28T04:13:00;102840;;;0.5;100.0
48680;BME280;34475;51.658;5.634;2023-02-28T04:14:00;102840;;;0.6;100.0
48680;BME280;34475;51.658;5.634;2023-02-28T04:15:00;102840;;;0.6;100.0
48680;BME280;34475;51.658;5.634;2023-02-28T04:16:00;102840;;;0.5;100.0
48680;BME280;34475;51.658;5.634;2023-02-28T04:17:00;102840;;;0.5;100.0
48680;BME280;34475;51.658;5.634;2023-02-28T04:18:00;102850;;;0.6;100.0
48680;BME280;34475;51.658;5.634;2023-02-28T04:19:01;102850;;;0.6;100.0
48680;BME280;34475;51.658;5.634;2023-02-28T04:20:00;102850;;;0.6;100.0
48680;BME280;34475;51.658;5.634;2023-02-28T04:21:00;102850;;;0.6;100.0
48680;BME280;34475;51.658;5.634;2023-02-28T04:22:00;102840;;;0.7;100.0
48680;BME280;34475;51.658;5.634;2023-02-28T04:23:00;102840;;;0.7;100.0
48680;BME280;34475;51.658;5.634;2023-02-28T04:24:00;102850;;;0.7;100.0
48680;BME280;34475;51.658;5.634;2023-02-28T04:25:00;102850;;;0.7;100.0
48680;BME280;34475;51.658;5.634;2023-02-28T04:26:00;102850;;;0.6;100.0
48680;BME280;34475;51.658;5.634;2023-02-28T04:27:00;102850;;;0.6;100.0
48680;BME280;34475;51.658;5.634;2023-02-28T04:28:00;102850;;;0.6;100.0
48680;BME280;34475;51.658;5.634;2023-02-28T04:29:00;102850;;;0.6;100.0
48680;BME280;34475;51.658;5.634;2023-02-28T04:30:00;102850;;;0.6;100.0
48680;BME280;34475;51.658;5.634;2023-02-28T04:31:01;102850;;;0.6;100.0
48680;BME280;34475;51.658;5.634;2023-02-28T04:32:00;102850;;;0.8;100.0
48680;BME280;34475;51.658;5.634;2023-02-28T04:33:00;102850;;;0.8;100.0
48680;BME280;34475;51.658;5.634;2023-02-28T04:34:00;102850;;;0.8;100.0
48680;BME280;34475;51.658;5.634;2023-02-28T04:35:00;102850;;;0.8;100.0
48680;BME280;34475;51.658;5.634;2023-02-28T04:36:01;102850;;;0.8;100.0
48680;BME280;34475;51.658;5.634;2023-02-28T04:37:00;102850;;;0.8;100.0
48680;BME280;34475;51.658;5.634;2023-02-28T04:38:00;102850;;;0.8;100.0
48680;BME280;34475;51.658;5.634;2023-02-28T04:39:00;102850;;;0.8;100.0
48680;BME280;34475;51.658;5.634;2023-02-28T04:40:01;102850;;;0.9;100.0
48680;BME280;34475;51.658;5.634;2023-02-28T04:41:00;102850;;;0.9;100.0
48680;BME280;34475;51.658;5.634;2023-02-28T04:42:00;102850;;;0.9;100.0
48680;BME280;34475;51.658;5.634;2023-02-28T04:43:00;102850;;;0.9;100.0
48680;BME280;34475;51.658;5.634;2023-02-28T04:44:00;102860;;;0.8;100.0
48680;BME280;34475;51.658;5.634;2023-02-28T04:45:01;102860;;;0.8;100.0
48680;BME280;34475;51.658;5.634;2023-02-28T04:46:01;102850;;;0.9;100.0
48680;BME280;34475;51.658;5.634;2023-02-28T04:47:00;102850;;;0.9;100.0
48680;BME280;34475;51.658;5.634;2023-02-28T04:48:00;102850;;;0.9;100.0
48680;BME280;34475;51.658;5.634;2023-02-28T04:49:00;102850;;;0.9;100.0
48680;BME280;34475;51.658;5.634;2023-02-28T04:50:00;102850;;;0.9;100.0
48680;BME280;34475;51.658;5.634;2023-02-28T04:51:02;102850;;;0.9;100.0
48680;BME280;34475;51.658;5.634;2023-02-28T04:52:00;102860;;;0.9;100.0
48680;BME280;34475;51.658;5.634;2023-02-28T04:53:00;102860;;;0.9;100.0
48680;BME280;34475;51.658;5.634;2023-02-28T04:54:00;102850;;;0.9;100.0
48680;BME280;34475;51.658;5.634;2023-02-28T04:55:00;102850;;;0.9;100.0
48680;BME280;34475;51.658;5.634;2023-02-28T04:56:00;102860;;;0.9;100.0
48680;BME280;34475;51.658;5.634;2023-02-28T04:57:00;102860;;;0.9;100.0
48680;BME280;34475;51.658;5.634;2023-02-28T04:58:00;102860;;;1.0;100.0
48680;BME280;34475;51.658;5.634;2023-02-28T04:59:00;102860;;;1.0;100.0
48680;BME280;34475;51.658;5.634;2023-02-28T05:00:00;102870;;;1.0;100.0
48680;BME280;34475;51.658;5.634;2023-02-28T05:01:02;102870;;;1.0;100.0
48680;BME280;34475;51.658;5.634;2023-02-28T05:02:00;102860;;;1.0;100.0
48680;BME280;34475;51.658;5.634;2023-02-28T05:03:00;102860;;;1.0;100.0
48680;BME280;34475;51.658;5.634;2023-02-28T05:04:00;102860;;;1.0;100.0
48680;BME280;34475;51.658;5.634;2023-02-28T05:05:00;102860;;;1.0;100.0
48680;BME280;34475;51.658;5.634;2023-02-28T05:06:00;102870;;;1.0;100.0
48680;BME280;34475;51.658;5.634;2023-02-28T05:07:00;102870;;;1.0;100.0
48680;BME280;34475;51.658;5.634;2023-02-28T05:08:00;102860;;;1.0;100.0
48680;BME280;34475;51.658;5.634;2023-02-28T05:09:00;102860;;;1.0;100.0
48680;BME280;34475;51.658;5.634;2023-02-28T05:10:00;102870;;;1.1;100.0
48680;BME280;34475;51.658;5.634;2023-02-28T05:11:00;102870;;;1.1;100.0
48680;BME280;34475;51.658;5.634;2023-02-28T05:12:00;102870;;;1.1;100.0
48680;BME280;34475;51.658;5.634;2023-02-28T05:13:00;102870;;;1.1;100.0
48680;BME280;34475;51.658;5.634;2023-02-28T05:14:01;102870;;;1.1;100.0
48680;BME280;34475;51.658;5.634;2023-02-28T05:15:00;102870;;;1.1;100.0
48680;BME280;34475;51.658;5.634;2023-02-28T05:16:00;102880;;;1.1;100.0
48680;BME280;34475;51.658;5.634;2023-02-28T05:17:00;102880;;;1.1;100.0
48680;BME280;34475;51.658;5.634;2023-02-28T05:18:00;102880;;;1.1;100.0
48680;BME280;34475;51.658;5.634;2023-02-28T05:19:00;102880;;;1.1;100.0
48680;BME280;34475;51.658;5.634;2023-02-28T05:20:00;102870;;;1.1;100.0
48680;BME280;34475;51.658;5.634;2023-02-28T05:21:00;102870;;;1.1;100.0
48680;BME280;34475;51.658;5.634;2023-02-28T05:22:00;102870;;;1.0;100.0
48680;BME280;34475;51.658;5.634;2023-02-28T05:23:00;102870;;;1.0;100.0
48680;BME280;34475;51.658;5.634;2023-02-28T05:24:01;102870;;;1.1;100.0
48680;BME280;34475;51.658;5.634;2023-02-28T05:25:00;102870;;;1.1;100.0
48680;BME280;34475;51.658;5.634;2023-02-28T05:26:00;102870;;;1.1;100.0
48680;BME280;34475;51.658;5.634;2023-02-28T05:27:00;102870;;;1.1;100.0
48680;BME280;34475;51.658;5.634;2023-02-28T05:28:00;102870;;;1.0;100.0
48680;BME280;34475;51.658;5.634;2023-02-28T05:29:00;102870;;;1.0;100.0
48680;BME280;34475;51.658;5.634;2023-02-28T05:30:00;102870;;;1.1;100.0
48680;BME280;34475;51.658;5.634;2023-02-28T05:31:00;102870;;;1.1;100.0
48680;BME280;34475;51.658;5.634;2023-02-28T05:32:00;102870;;;1.0;100.0
48680;BME280;34475;51.658;5.634;2023-02-28T05:33:00;102870;;;1.0;100.0
48680;BME280;34475;51.658;5.634;2023-02-28T05:34:00;102870;;;1.1;100.0
48680;BME280;34475;51.658;5.634;2023-02-28T05:35:00;102870;;;1.1;100.0
48680;BME280;34475;51.658;5.634;2023-02-28T05:36:00;102870;;;1.0;100.0
48680;BME280;34475;51.658;5.634;2023-02-28T05:37:00;102870;;;1.0;100.0
48680;BME280;34475;51.658;5.634;2023-02-28T05:38:00;102870;;;1.0;100.0
48680;BME280;34475;51.658;5.634;2023-02-28T05:39:00;102870;;;1.0;100.0
48680;BME280;34475;51.658;5.634;2023-02-28T05:40:00;102870;;;1.0;100.0
48680;BME280;34475;51.658;5.634;2023-02-28T05:41:04;102870;;;1.0;100.0
48680;BME280;34475;51.658;5.634;2023-02-28T05:42:00;102870;;;1.0;100.0
48680;BME280;34475;51.658;5.634;2023-02-28T05:43:00;102870;;;1.0;100.0
48680;BME280;34475;51.658;5.634;2023-02-28T05:44:00;102870;;;1.0;100.0
48680;BME280;34475;51.658;5.634;2023-02-28T05:45:00;102870;;;1.0;100.0
48680;BME280;34475;51.658;5.634;2023-02-28T05:46:02;102870;;;1.0;100.0
48680;BME280;34475;51.658;5.634;2023-02-28T05:47:00;102870;;;1.0;100.0
48680;BME280;34475;51.658;5.634;2023-02-28T05:48:00;102870;;;1.0;100.0
48680;BME280;34475;51.658;5.634;2023-02-28T05:49:00;102870;;;1.0;100.0
48680;BME280;34475;51.658;5.634;2023-02-28T05:50:00;102880;;;1.0;100.0
48680;BME280;34475;51.658;5.634;2023-02-28T05:51:00;102880;;;1.0;100.0
48680;BME280;34475;51.658;5.634;2023-02-28T05:52:00;102880;;;0.9;100.0
48680;BME280;34475;51.658;5.634;2023-02-28T05:53:00;102880;;;0.9;100.0
48680;BME280;34475;51.658;5.634;2023-02-28T05:54:00;102880;;;0.9;100.0
48680;BME280;34475;51.658;5.634;2023-02-28T05:55:00;102880;;;0.9;100.0
48680;BME280;34475;51.658;5.634;2023-02-28T05:56:00;102880;;;0.9;100.0
48680;BME280;34475;51.658;5.634;2023-02-28T05:57:00;102880;;;0.9;100.0
48680;BME280;34475;51.658;5.634;2023-02-28T05:58:00;102880;;;0.9;100.0
48680;BME280;34475;51.658;5.634;2023-02-28T05:59:00;102880;;;0.9;100.0
48680;BME280;34475;51.658;5.634;2023-02-28T06:00:00;102890;;;0.8;100.0
48680;BME280;34475;51.658;5.634;2023-02-28T06:01:00;102890;;;0.8;100.0
48680;BME280;34475;51.658;5.634;2023-02-28T06:02:00;102890;;;0.8;100.0
48680;BME280;34475;51.658;5.634;2023-02-28T06:03:00;102890;;;0.8;100.0